sensor_id;sensor_type;location;lat;lon;timestamp;P1;durP1;ratioP1;P2;durP2;ratioP2
32242;SDS011;18731;42.830;24.390;2022-10-16T03:02:26;8.63;;;5.63;;
32242;SDS011;18731;42.830;24.390;2022-10-16T03:04:51;8.23;;;5.57;;
32242;SDS011;18731;42.830;24.390;2022-10-16T03:07:17;13.07;;;5.20;;
32242;SDS011;18731;42.830;24.390;2022-10-16T03:09:43;12.77;;;5.30;;
32242;SDS011;18731;42.830;24.390;2022-10-16T03:12:09;12.30;;;6.22;;
32242;SDS011;18731;42.830;24.390;2022-10-16T03:14:37;13.68;;;6.22;;
32242;SDS011;18731;42.830;24.390;2022-10-16T03:17:05;11.30;;;5.95;;
32242;SDS011;18731;42.830;24.390;2022-10-16T03:19:31;8.45;;;5.40;;
32242;SDS011;18731;42.830;24.390;2022-10-16T03:21:56;9.20;;;5.18;;
32242;SDS011;18731;42.830;24.390;2022-10-16T03:24:22;9.60;;;5.63;;
32242;SDS011;18731;42.830;24.390;2022-10-16T03:26:48;11.05;;;5.95;;
32242;SDS011;18731;42.830;24.390;2022-10-16T03:29:14;11.55;;;5.22;;
32242;SDS011;18731;42.830;24.390;2022-10-16T03:31:39;8.38;;;5.03;;
32242;SDS011;18731;42.830;24.390;2022-10-16T03:34:06;12.65;;;5.68;;
32242;SDS011;18731;42.830;24.390;2022-10-16T03:36:32;10.48;;;5.90;;
32242;SDS011;18731;42.830;24.390;2022-10-16T03:38:57;11.10;;;5.78;;
32242;SDS011;18731;42.830;24.390;2022-10-16T03:41:23;17.00;;;5.90;;
32242;SDS011;18731;42.830;24.390;2022-10-16T03:43:49;12.18;;;5.85;;
32242;SDS011;18731;42.830;24.390;2022-10-16T03:46:14;8.90;;;5.93;;
32242;SDS011;18731;42.830;24.390;2022-10-16T03:48:40;12.82;;;6.13;;
32242;SDS011;18731;42.830;24.390;2022-10-16T03:51:06;12.35;;;5.65;;
32242;SDS011;18731;42.830;24.390;2022-10-16T03:53:31;13.02;;;5.88;;
32242;SDS011;18731;42.830;24.390;2022-10-16T03:55:57;15.02;;;5.70;;
32242;SDS011;18731;42.830;24.390;2022-10-16T03:58:25;8.45;;;5.18;;
32242;SDS011;18731;42.830;24.390;2022-10-16T04:00:50;9.35;;;5.78;;
32242;SDS011;18731;42.830;24.390;2022-10-16T04:03:16;16.10;;;5.47;;
32242;SDS011;18731;42.830;24.390;2022-10-16T04:05:44;11.80;;;4.85;;
32242;SDS011;18731;42.830;24.390;2022-10-16T04:08:09;13.60;;;5.25;;
32242;SDS011;18731;42.830;24.390;2022-10-16T04:10:35;10.77;;;6.43;;
32242;SDS011;18731;42.830;24.390;2022-10-16T04:13:01;28.30;;;15.73;;
32242;SDS011;18731;42.830;24.390;2022-10-16T04:15:26;53.00;;;25.23;;
32242;SDS011;18731;42.830;24.390;2022-10-16T04:17:52;54.08;;;26.35;;
32242;SDS011;18731;42.830;24.390;2022-10-16T04:20:18;23.58;;;12.60;;
32242;SDS011;18731;42.830;24.390;2022-10-16T04:22:44;18.17;;;7.47;;
32242;SDS011;18731;42.830;24.390;2022-10-16T04:25:10;17.23;;;6.85;;
32242;SDS011;18731;42.830;24.390;2022-10-16T04:27:37;13.32;;;7.45;;
32242;SDS011;18731;42.830;24.390;2022-10-16T04:30:03;18.70;;;7.25;;
32242;SDS011;18731;42.830;24.390;2022-10-16T04:32:29;17.85;;;9.82;;
32242;SDS011;18731;42.830;24.390;2022-10-16T04:34:55;15.95;;;8.05;;
32242;SDS011;18731;42.830;24.390;2022-10-16T04:37:24;13.05;;;7.70;;
32242;SDS011;18731;42.830;24.390;2022-10-16T04:39:51;17.75;;;7.00;;
32242;SDS011;18731;42.830;24.390;2022-10-16T04:42:18;21.27;;;7.88;;
32242;SDS011;18731;42.830;24.390;2022-10-16T04:44:44;12.32;;;7.50;;
32242;SDS011;18731;42.830;24.390;2022-10-16T04:47:09;11.48;;;7.60;;
32242;SDS011;18731;42.830;24.390;2022-10-16T04:49:35;17.73;;;7.00;;
32242;SDS011;18731;42.830;24.390;2022-10-16T04:52:01;14.80;;;8.70;;
32242;SDS011;18731;42.830;24.390;2022-10-16T04:54:26;22.23;;;11.98;;
32242;SDS011;18731;42.830;24.390;2022-10-16T04:56:52;19.13;;;12.65;;
32242;SDS011;18731;42.830;24.390;2022-10-16T04:59:18;19.10;;;11.98;;
32242;SDS011;18731;42.830;24.390;2022-10-16T05:01:44;16.95;;;11.63;;
32242;SDS011;18731;42.830;24.390;2022-10-16T05:04:10;35.75;;;11.30;;
32242;SDS011;18731;42.830;24.390;2022-10-16T05:06:37;20.60;;;11.82;;
32242;SDS011;18731;42.830;24.390;2022-10-16T05:09:04;42.00;;;23.10;;
32242;SDS011;18731;42.830;24.390;2022-10-16T05:11:30;26.00;;;15.35;;
32242;SDS011;18731;42.830;24.390;2022-10-16T05:13:57;32.25;;;18.77;;
32242;SDS011;18731;42.830;24.390;2022-10-16T05:16:23;27.58;;;14.32;;
32242;SDS011;18731;42.830;24.390;2022-10-16T05:18:48;29.08;;;14.13;;
32242;SDS011;18731;42.830;24.390;2022-10-16T05:21:16;34.38;;;13.52;;
32242;SDS011;18731;42.830;24.390;2022-10-16T05:23:42;20.05;;;11.68;;
32242;SDS011;18731;42.830;24.390;2022-10-16T05:26:07;24.40;;;11.07;;
32242;SDS011;18731;42.830;24.390;2022-10-16T05:28:33;34.08;;;18.42;;
32242;SDS011;18731;42.830;24.390;2022-10-16T05:30:59;33.28;;;20.77;;
32242;SDS011;18731;42.830;24.390;2022-10-16T05:33:29;30.70;;;14.43;;
32242;SDS011;18731;42.830;24.390;2022-10-16T05:35:54;30.13;;;16.42;;
32242;SDS011;18731;42.830;24.390;2022-10-16T05:38:20;27.50;;;18.42;;
32242;SDS011;18731;42.830;24.390;2022-10-16T05:40:52;20.80;;;14.18;;
32242;SDS011;18731;42.830;24.390;2022-10-16T05:43:18;15.32;;;9.93;;
32242;SDS011;18731;42.830;24.390;2022-10-16T05:45:44;16.95;;;9.27;;
32242;SDS011;18731;42.830;24.390;2022-10-16T05:48:21;20.15;;;9.50;;
32242;SDS011;18731;42.830;24.390;2022-10-16T05:50:47;20.83;;;11.30;;
32242;SDS011;18731;42.830;24.390;2022-10-16T05:53:13;15.68;;;8.18;;
32242;SDS011;18731;42.830;24.390;2022-10-16T05:55:38;12.32;;;6.85;;
32242;SDS011;18731;42.830;24.390;2022-10-16T05:58:04;12.52;;;6.55;;
32242;SDS011;18731;42.830;24.390;2022-10-16T06:00:30;11.18;;;6.38;;
32242;SDS011;18731;42.830;24.390;2022-10-16T06:02:55;11.95;;;4.97;;
32242;SDS011;18731;42.830;24.390;2022-10-16T06:05:21;17.50;;;5.57;;
32242;SDS011;18731;42.830;24.390;2022-10-16T06:07:46;13.10;;;5.68;;
32242;SDS011;18731;42.830;24.390;2022-10-16T06:10:12;14.43;;;4.82;;
32242;SDS011;18731;42.830;24.390;2022-10-16T06:12:38;11.48;;;5.18;;
32242;SDS011;18731;42.830;24.390;2022-10-16T06:15:04;9.02;;;5.20;;
32242;SDS011;18731;42.830;24.390;2022-10-16T06:17:29;8.65;;;4.28;;
32242;SDS011;18731;42.830;24.390;2022-10-16T06:19:55;10.13;;;4.82;;
32242;SDS011;18731;42.830;24.390;2022-10-16T06:22:21;6.45;;;4.68;;
32242;SDS011;18731;42.830;24.390;2022-10-16T06:24:47;7.65;;;4.82;;
32242;SDS011;18731;42.830;24.390;2022-10-16T06:27:12;7.03;;;4.70;;
32242;SDS011;18731;42.830;24.390;2022-10-16T06:29:38;24.08;;;16.70;;
32242;SDS011;18731;42.830;24.390;2022-10-16T06:32:04;11.13;;;6.30;;
32242;SDS011;18731;42.830;24.390;2022-10-16T06:34:29;9.35;;;5.30;;
32242;SDS011;18731;42.830;24.390;2022-10-16T06:36:55;14.80;;;4.75;;
32242;SDS011;18731;42.830;24.390;2022-10-16T06:39:21;7.80;;;5.10;;
32242;SDS011;18731;42.830;24.390;2022-10-16T06:41:46;19.02;;;4.93;;
32242;SDS011;18731;42.830;24.390;2022-10-16T06:44:12;13.75;;;5.60;;
32242;SDS011;18731;42.830;24.390;2022-10-16T06:46:38;8.27;;;5.00;;
32242;SDS011;18731;42.830;24.390;2022-10-16T06:49:03;8.75;;;5.22;;
32242;SDS011;18731;42.830;24.390;2022-10-16T06:51:29;8.80;;;5.28;;
32242;SDS011;18731;42.830;24.390;2022-10-16T06:53:57;8.63;;;5.40;;
32242;SDS011;18731;42.830;24.390;2022-10-16T06:56:23;10.20;;;5.30;;
32242;SDS011;18731;42.830;24.390;2022-10-16T06:58:51;13.35;;;6.00;;
32242;SDS011;18731;42.830;24.390;2022-10-16T07:01:21;9.20;;;5.53;;
32242;SDS011;18731;42.830;24.390;2022-10-16T07:03:47;11.18;;;4.88;;
32242;SDS011;18731;42.830;24.390;2022-10-16T07:06:14;11.68;;;4.97;;
32242;SDS011;18731;42.830;24.390;2022-10-16T07:08:42;12.32;;;5.15;;
32242;SDS011;18731;42.830;24.390;2022-10-16T07:11:09;6.65;;;4.13;;
32242;SDS011;18731;42.830;24.390;2022-10-16T07:13:40;8.85;;;4.43;;
32242;SDS011;18731;42.830;24.390;2022-10-16T07:16:08;5.45;;;4.38;;
32242;SDS011;18731;42.830;24.390;2022-10-16T07:18:36;14.35;;;4.75;;
32242;SDS011;18731;42.830;24.390;2022-10-16T07:21:06;7.53;;;4.45;;
32242;SDS011;18731;42.830;24.390;2022-10-16T07:23:36;10.80;;;4.60;;
32242;SDS011;18731;42.830;24.390;2022-10-16T07:26:03;13.40;;;5.07;;
32242;SDS011;18731;42.830;24.390;2022-10-16T07:28:30;7.80;;;4.65;;
32242;SDS011;18731;42.830;24.390;2022-10-16T07:30:59;11.40;;;4.70;;
32242;SDS011;18731;42.830;24.390;2022-10-16T07:33:27;13.73;;;4.82;;
32242;SDS011;18731;42.830;24.390;2022-10-16T07:35:53;9.45;;;4.75;;
32242;SDS011;18731;42.830;24.390;2022-10-16T07:38:20;11.20;;;4.80;;
32242;SDS011;18731;42.830;24.390;2022-10-16T07:40:46;12.35;;;5.50;;
32242;SDS011;18731;42.830;24.390;2022-10-16T07:43:12;13.43;;;5.50;;
32242;SDS011;18731;42.830;24.390;2022-10-16T07:45:46;9.82;;;5.57;;
32242;SDS011;18731;42.830;24.390;2022-10-16T07:50:39;6.25;;;4.30;;
32242;SDS011;18731;42.830;24.390;2022-10-16T07:53:06;9.25;;;5.28;;
32242;SDS011;18731;42.830;24.390;2022-10-16T07:55:32;9.45;;;5.10;;
32242;SDS011;18731;42.830;24.390;2022-10-16T07:57:58;8.45;;;5.13;;
32242;SDS011;18731;42.830;24.390;2022-10-16T08:00:23;11.43;;;5.82;;
32242;SDS011;18731;42.830;24.390;2022-10-16T08:02:49;7.93;;;4.97;;
32242;SDS011;18731;42.830;24.390;2022-10-16T08:05:14;14.30;;;5.45;;
32242;SDS011;18731;42.830;24.390;2022-10-16T08:07:40;11.63;;;4.90;;
32242;SDS011;18731;42.830;24.390;2022-10-16T08:10:06;9.77;;;5.13;;
32242;SDS011;18731;42.830;24.390;2022-10-16T08:12:36;10.63;;;4.78;;
32242;SDS011;18731;42.830;24.390;2022-10-16T08:15:01;13.25;;;4.35;;
32242;SDS011;18731;42.830;24.390;2022-10-16T08:17:27;11.68;;;4.10;;
32242;SDS011;18731;42.830;24.390;2022-10-16T08:19:53;9.35;;;3.88;;
32242;SDS011;18731;42.830;24.390;2022-10-16T08:22:18;12.95;;;4.03;;
32242;SDS011;18731;42.830;24.390;2022-10-16T08:24:44;6.68;;;4.03;;
32242;SDS011;18731;42.830;24.390;2022-10-16T08:27:10;7.50;;;4.00;;
32242;SDS011;18731;42.830;24.390;2022-10-16T08:29:35;8.88;;;3.47;;
32242;SDS011;18731;42.830;24.390;2022-10-16T08:32:01;10.07;;;3.80;;
32242;SDS011;18731;42.830;24.390;2022-10-16T08:34:29;5.93;;;3.50;;
32242;SDS011;18731;42.830;24.390;2022-10-16T08:36:54;12.13;;;3.40;;
32242;SDS011;18731;42.830;24.390;2022-10-16T08:39:20;8.65;;;3.60;;
32242;SDS011;18731;42.830;24.390;2022-10-16T08:44:46;5.82;;;3.53;;
32242;SDS011;18731;42.830;24.390;2022-10-16T08:50:09;6.05;;;3.60;;
32242;SDS011;18731;42.830;24.390;2022-10-16T08:52:39;9.90;;;3.80;;
32242;SDS011;18731;42.830;24.390;2022-10-16T08:55:17;5.47;;;3.08;;
32242;SDS011;18731;42.830;24.390;2022-10-16T08:58:27;6.38;;;3.45;;
32242;SDS011;18731;42.830;24.390;2022-10-16T09:00:55;6.07;;;3.10;;
32242;SDS011;18731;42.830;24.390;2022-10-16T09:09:13;6.10;;;2.92;;
32242;SDS011;18731;42.830;24.390;2022-10-16T09:17:13;10.85;;;3.30;;
32242;SDS011;18731;42.830;24.390;2022-10-16T09:19:51;5.78;;;2.95;;
32242;SDS011;18731;42.830;24.390;2022-10-16T09:22:25;7.15;;;3.30;;
32242;SDS011;18731;42.830;24.390;2022-10-16T09:24:54;5.95;;;3.13;;
32242;SDS011;18731;42.830;24.390;2022-10-16T09:27:24;9.52;;;3.10;;
32242;SDS011;18731;42.830;24.390;2022-10-16T09:29:51;5.85;;;3.00;;
32242;SDS011;18731;42.830;24.390;2022-10-16T09:32:18;8.45;;;3.38;;
32242;SDS011;18731;42.830;24.390;2022-10-16T09:34:52;8.77;;;3.33;;
32242;SDS011;18731;42.830;24.390;2022-10-16T09:37:21;5.15;;;2.97;;
32242;SDS011;18731;42.830;24.390;2022-10-16T09:39:52;7.20;;;3.03;;
32242;SDS011;18731;42.830;24.390;2022-10-16T09:42:23;8.82;;;3.50;;
32242;SDS011;18731;42.830;24.390;2022-10-16T09:44:55;4.20;;;2.78;;
32242;SDS011;18731;42.830;24.390;2022-10-16T09:47:28;5.00;;;2.95;;
32242;SDS011;18731;42.830;24.390;2022-10-16T09:49:56;5.50;;;2.80;;
32242;SDS011;18731;42.830;24.390;2022-10-16T09:52:27;6.57;;;2.83;;
32242;SDS011;18731;42.830;24.390;2022-10-16T09:54:57;13.18;;;3.40;;
32242;SDS011;18731;42.830;24.390;2022-10-16T09:57:25;5.75;;;3.20;;
32242;SDS011;18731;42.830;24.390;2022-10-16T09:59:55;4.45;;;2.97;;
32242;SDS011;18731;42.830;24.390;2022-10-16T10:02:29;6.75;;;2.97;;
32242;SDS011;18731;42.830;24.390;2022-10-16T10:04:56;5.55;;;2.88;;
32242;SDS011;18731;42.830;24.390;2022-10-16T10:07:26;6.55;;;2.80;;
32242;SDS011;18731;42.830;24.390;2022-10-16T10:09:58;3.67;;;2.72;;
32242;SDS011;18731;42.830;24.390;2022-10-16T10:12:26;3.75;;;2.70;;
32242;SDS011;18731;42.830;24.390;2022-10-16T10:14:55;5.10;;;3.03;;
32242;SDS011;18731;42.830;24.390;2022-10-16T10:17:23;10.35;;;3.55;;
32242;SDS011;18731;42.830;24.390;2022-10-16T10:19:52;8.45;;;3.05;;
32242;SDS011;18731;42.830;24.390;2022-10-16T10:27:32;11.10;;;2.78;;
32242;SDS011;18731;42.830;24.390;2022-10-16T10:30:36;5.63;;;3.13;;
32242;SDS011;18731;42.830;24.390;2022-10-16T10:36:22;3.13;;;2.67;;
32242;SDS011;18731;42.830;24.390;2022-10-16T10:39:07;8.23;;;2.92;;
32242;SDS011;18731;42.830;24.390;2022-10-16T11:03:35;5.43;;;2.80;;
32242;SDS011;18731;42.830;24.390;2022-10-16T11:06:20;6.10;;;3.00;;
32242;SDS011;18731;42.830;24.390;2022-10-16T11:09:02;8.73;;;2.60;;
32242;SDS011;18731;42.830;24.390;2022-10-16T11:19:45;6.75;;;2.58;;
32242;SDS011;18731;42.830;24.390;2022-10-16T11:22:23;4.07;;;2.78;;
32242;SDS011;18731;42.830;24.390;2022-10-16T11:24:54;4.82;;;2.50;;
32242;SDS011;18731;42.830;24.390;2022-10-16T11:28:02;5.97;;;2.58;;
32242;SDS011;18731;42.830;24.390;2022-10-16T11:30:24;3.92;;;2.35;;
32242;SDS011;18731;42.830;24.390;2022-10-16T11:33:39;4.45;;;2.70;;
32242;SDS011;18731;42.830;24.390;2022-10-16T11:35:59;5.30;;;2.60;;
32242;SDS011;18731;42.830;24.390;2022-10-16T11:44:20;4.35;;;2.67;;
32242;SDS011;18731;42.830;24.390;2022-10-16T11:47:31;5.32;;;2.50;;
32242;SDS011;18731;42.830;24.390;2022-10-16T11:55:27;3.53;;;2.53;;
32242;SDS011;18731;42.830;24.390;2022-10-16T11:58:02;8.60;;;2.70;;
32242;SDS011;18731;42.830;24.390;2022-10-16T12:00:47;7.18;;;2.30;;
32242;SDS011;18731;42.830;24.390;2022-10-16T12:06:44;3.80;;;2.20;;
32242;SDS011;18731;42.830;24.390;2022-10-16T12:09:27;5.85;;;2.55;;
32242;SDS011;18731;42.830;24.390;2022-10-16T12:14:32;3.30;;;2.25;;
32242;SDS011;18731;42.830;24.390;2022-10-16T12:17:03;5.35;;;2.25;;
32242;SDS011;18731;42.830;24.390;2022-10-16T12:19:58;7.72;;;2.40;;
32242;SDS011;18731;42.830;24.390;2022-10-16T12:22:55;6.10;;;2.53;;
32242;SDS011;18731;42.830;24.390;2022-10-16T12:25:27;4.05;;;2.58;;
32242;SDS011;18731;42.830;24.390;2022-10-16T12:27:59;6.53;;;2.55;;
32242;SDS011;18731;42.830;24.390;2022-10-16T12:30:34;5.10;;;2.28;;
32242;SDS011;18731;42.830;24.390;2022-10-16T12:33:02;7.03;;;2.40;;
32242;SDS011;18731;42.830;24.390;2022-10-16T12:35:32;8.68;;;2.30;;
32242;SDS011;18731;42.830;24.390;2022-10-16T12:38:07;6.65;;;2.90;;
32242;SDS011;18731;42.830;24.390;2022-10-16T12:40:45;11.68;;;2.58;;
32242;SDS011;18731;42.830;24.390;2022-10-16T12:46:20;6.43;;;2.42;;
32242;SDS011;18731;42.830;24.390;2022-10-16T12:48:48;9.80;;;2.67;;
32242;SDS011;18731;42.830;24.390;2022-10-16T13:10:26;9.18;;;2.83;;
32242;SDS011;18731;42.830;24.390;2022-10-16T13:29:32;5.37;;;2.70;;
32242;SDS011;18731;42.830;24.390;2022-10-16T13:32:06;7.20;;;2.83;;
32242;SDS011;18731;42.830;24.390;2022-10-16T13:34:41;6.15;;;2.85;;
32242;SDS011;18731;42.830;24.390;2022-10-16T13:37:19;6.68;;;3.30;;
32242;SDS011;18731;42.830;24.390;2022-10-16T13:39:47;7.35;;;2.78;;
32242;SDS011;18731;42.830;24.390;2022-10-16T13:42:18;8.13;;;3.00;;
32242;SDS011;18731;42.830;24.390;2022-10-16T13:44:49;8.25;;;2.80;;
32242;SDS011;18731;42.830;24.390;2022-10-16T13:49:58;13.63;;;4.47;;
32242;SDS011;18731;42.830;24.390;2022-10-16T13:52:26;7.43;;;3.50;;
32242;SDS011;18731;42.830;24.390;2022-10-16T13:54:53;5.90;;;2.80;;
32242;SDS011;18731;42.830;24.390;2022-10-16T13:57:18;6.63;;;3.00;;
32242;SDS011;18731;42.830;24.390;2022-10-16T13:59:48;9.82;;;2.90;;
32242;SDS011;18731;42.830;24.390;2022-10-16T14:04:54;7.88;;;3.22;;
32242;SDS011;18731;42.830;24.390;2022-10-16T14:07:25;14.93;;;3.10;;
32242;SDS011;18731;42.830;24.390;2022-10-16T14:09:53;7.63;;;3.25;;
32242;SDS011;18731;42.830;24.390;2022-10-16T14:12:20;8.70;;;3.28;;
32242;SDS011;18731;42.830;24.390;2022-10-16T14:14:48;8.32;;;3.47;;
32242;SDS011;18731;42.830;24.390;2022-10-16T14:17:38;10.73;;;3.10;;
32242;SDS011;18731;42.830;24.390;2022-10-16T14:20:15;9.07;;;3.30;;
32242;SDS011;18731;42.830;24.390;2022-10-16T14:22:41;12.98;;;4.00;;
32242;SDS011;18731;42.830;24.390;2022-10-16T14:30:25;16.02;;;4.45;;
32242;SDS011;18731;42.830;24.390;2022-10-16T14:32:56;19.40;;;4.30;;
32242;SDS011;18731;42.830;24.390;2022-10-16T14:35:29;7.10;;;4.60;;
32242;SDS011;18731;42.830;24.390;2022-10-16T14:37:56;6.22;;;3.92;;
32242;SDS011;18731;42.830;24.390;2022-10-16T14:40:24;15.40;;;8.10;;
32242;SDS011;18731;42.830;24.390;2022-10-16T14:42:52;21.67;;;5.38;;
32242;SDS011;18731;42.830;24.390;2022-10-16T14:45:19;15.23;;;7.03;;
32242;SDS011;18731;42.830;24.390;2022-10-16T14:47:55;19.98;;;5.97;;
32242;SDS011;18731;42.830;24.390;2022-10-16T14:50:26;28.80;;;5.60;;
32242;SDS011;18731;42.830;24.390;2022-10-16T14:52:52;12.80;;;4.95;;
32242;SDS011;18731;42.830;24.390;2022-10-16T14:55:18;13.75;;;4.32;;
32242;SDS011;18731;42.830;24.390;2022-10-16T14:57:44;9.73;;;4.93;;
32242;SDS011;18731;42.830;24.390;2022-10-16T15:00:21;15.55;;;4.70;;
32242;SDS011;18731;42.830;24.390;2022-10-16T15:02:48;13.70;;;4.40;;
32242;SDS011;18731;42.830;24.390;2022-10-16T15:07:47;19.02;;;8.23;;
32242;SDS011;18731;42.830;24.390;2022-10-16T15:10:14;14.35;;;8.52;;
32242;SDS011;18731;42.830;24.390;2022-10-16T15:12:41;27.98;;;12.00;;
32242;SDS011;18731;42.830;24.390;2022-10-16T15:17:51;15.63;;;7.03;;
32242;SDS011;18731;42.830;24.390;2022-10-16T15:20:20;12.25;;;6.60;;
32242;SDS011;18731;42.830;24.390;2022-10-16T15:22:46;17.73;;;7.22;;
32242;SDS011;18731;42.830;24.390;2022-10-16T15:25:33;44.33;;;21.33;;
32242;SDS011;18731;42.830;24.390;2022-10-16T15:28:07;29.13;;;14.55;;
32242;SDS011;18731;42.830;24.390;2022-10-16T15:30:33;24.88;;;13.18;;
32242;SDS011;18731;42.830;24.390;2022-10-16T15:33:00;27.02;;;11.48;;
32242;SDS011;18731;42.830;24.390;2022-10-16T15:35:27;22.73;;;11.70;;
32242;SDS011;18731;42.830;24.390;2022-10-16T15:37:53;30.98;;;12.75;;
32242;SDS011;18731;42.830;24.390;2022-10-16T15:40:19;38.75;;;21.38;;
32242;SDS011;18731;42.830;24.390;2022-10-16T15:42:45;22.13;;;10.75;;
32242;SDS011;18731;42.830;24.390;2022-10-16T15:45:12;28.73;;;14.15;;
32242;SDS011;18731;42.830;24.390;2022-10-16T15:47:38;22.00;;;8.23;;
32242;SDS011;18731;42.830;24.390;2022-10-16T15:50:06;28.73;;;15.52;;
32242;SDS011;18731;42.830;24.390;2022-10-16T15:52:34;26.33;;;11.55;;
32242;SDS011;18731;42.830;24.390;2022-10-16T15:55:00;11.65;;;7.18;;
32242;SDS011;18731;42.830;24.390;2022-10-16T15:57:27;18.20;;;10.23;;
32242;SDS011;18731;42.830;24.390;2022-10-16T15:59:53;24.05;;;12.70;;
32242;SDS011;18731;42.830;24.390;2022-10-16T16:02:19;19.17;;;9.30;;
32242;SDS011;18731;42.830;24.390;2022-10-16T16:04:45;35.88;;;15.00;;
32242;SDS011;18731;42.830;24.390;2022-10-16T16:07:10;23.48;;;13.68;;
32242;SDS011;18731;42.830;24.390;2022-10-16T16:09:36;22.83;;;11.35;;
32242;SDS011;18731;42.830;24.390;2022-10-16T16:12:02;19.65;;;11.70;;
32242;SDS011;18731;42.830;24.390;2022-10-16T16:14:28;18.98;;;11.10;;
32242;SDS011;18731;42.830;24.390;2022-10-16T16:16:55;20.15;;;11.02;;
32242;SDS011;18731;42.830;24.390;2022-10-16T16:19:21;17.23;;;10.10;;
32242;SDS011;18731;42.830;24.390;2022-10-16T16:21:47;16.30;;;9.13;;
32242;SDS011;18731;42.830;24.390;2022-10-16T16:24:13;19.17;;;8.80;;
32242;SDS011;18731;42.830;24.390;2022-10-16T16:26:39;14.65;;;7.93;;
32242;SDS011;18731;42.830;24.390;2022-10-16T16:29:11;17.73;;;8.85;;
32242;SDS011;18731;42.830;24.390;2022-10-16T16:31:39;19.10;;;9.00;;
32242;SDS011;18731;42.830;24.390;2022-10-16T16:34:05;16.05;;;8.93;;
32242;SDS011;18731;42.830;24.390;2022-10-16T16:36:32;22.38;;;10.63;;
32242;SDS011;18731;42.830;24.390;2022-10-16T16:38:58;20.90;;;11.52;;
32242;SDS011;18731;42.830;24.390;2022-10-16T16:41:25;18.00;;;8.63;;
32242;SDS011;18731;42.830;24.390;2022-10-16T16:43:53;17.42;;;9.05;;
32242;SDS011;18731;42.830;24.390;2022-10-16T16:46:20;25.20;;;13.07;;
32242;SDS011;18731;42.830;24.390;2022-10-16T16:48:46;21.65;;;11.75;;
32242;SDS011;18731;42.830;24.390;2022-10-16T16:51:15;18.30;;;9.88;;
32242;SDS011;18731;42.830;24.390;2022-10-16T16:53:47;21.67;;;10.70;;
32242;SDS011;18731;42.830;24.390;2022-10-16T16:56:15;23.08;;;10.50;;
32242;SDS011;18731;42.830;24.390;2022-10-16T16:58:44;22.67;;;11.93;;
32242;SDS011;18731;42.830;24.390;2022-10-16T17:01:11;22.85;;;12.07;;
32242;SDS011;18731;42.830;24.390;2022-10-16T17:03:37;26.08;;;13.50;;
32242;SDS011;18731;42.830;24.390;2022-10-16T17:06:05;29.67;;;12.80;;
32242;SDS011;18731;42.830;24.390;2022-10-16T17:08:32;34.78;;;14.88;;
32242;SDS011;18731;42.830;24.390;2022-10-16T17:11:00;27.15;;;13.70;;
32242;SDS011;18731;42.830;24.390;2022-10-16T17:13:29;20.35;;;10.07;;
32242;SDS011;18731;42.830;24.390;2022-10-16T17:15:56;18.50;;;9.77;;
32242;SDS011;18731;42.830;24.390;2022-10-16T17:18:23;22.42;;;10.57;;
32242;SDS011;18731;42.830;24.390;2022-10-16T17:20:49;18.45;;;9.65;;
32242;SDS011;18731;42.830;24.390;2022-10-16T17:23:16;17.27;;;9.48;;
32242;SDS011;18731;42.830;24.390;2022-10-16T17:25:44;17.08;;;9.20;;
32242;SDS011;18731;42.830;24.390;2022-10-16T17:28:11;20.60;;;10.65;;
32242;SDS011;18731;42.830;24.390;2022-10-16T17:30:38;16.63;;;9.55;;
32242;SDS011;18731;42.830;24.390;2022-10-16T17:33:05;18.55;;;7.95;;
32242;SDS011;18731;42.830;24.390;2022-10-16T17:35:39;16.80;;;8.35;;
32242;SDS011;18731;42.830;24.390;2022-10-16T17:38:09;16.20;;;9.13;;
32242;SDS011;18731;42.830;24.390;2022-10-16T17:40:37;17.05;;;7.78;;
32242;SDS011;18731;42.830;24.390;2022-10-16T17:43:03;18.83;;;8.63;;
32242;SDS011;18731;42.830;24.390;2022-10-16T17:45:30;20.25;;;10.68;;
32242;SDS011;18731;42.830;24.390;2022-10-16T17:47:59;14.52;;;9.25;;
32242;SDS011;18731;42.830;24.390;2022-10-16T17:50:24;17.20;;;9.00;;
32242;SDS011;18731;42.830;24.390;2022-10-16T17:52:50;15.68;;;8.75;;
32242;SDS011;18731;42.830;24.390;2022-10-16T17:55:16;18.38;;;10.60;;
32242;SDS011;18731;42.830;24.390;2022-10-16T17:57:41;21.65;;;9.43;;
32242;SDS011;18731;42.830;24.390;2022-10-16T18:00:07;17.75;;;8.07;;
32242;SDS011;18731;42.830;24.390;2022-10-16T18:02:34;20.65;;;8.25;;
32242;SDS011;18731;42.830;24.390;2022-10-16T18:04:59;16.38;;;8.55;;
32242;SDS011;18731;42.830;24.390;2022-10-16T18:07:25;12.18;;;7.78;;
32242;SDS011;18731;42.830;24.390;2022-10-16T18:09:51;15.23;;;8.10;;
32242;SDS011;18731;42.830;24.390;2022-10-16T18:12:17;17.65;;;7.95;;
32242;SDS011;18731;42.830;24.390;2022-10-16T18:14:42;12.90;;;8.73;;
32242;SDS011;18731;42.830;24.390;2022-10-16T18:17:08;21.00;;;8.13;;
32242;SDS011;18731;42.830;24.390;2022-10-16T18:19:35;11.88;;;8.18;;
32242;SDS011;18731;42.830;24.390;2022-10-16T18:22:01;16.90;;;8.27;;
32242;SDS011;18731;42.830;24.390;2022-10-16T18:24:26;15.32;;;8.65;;
32242;SDS011;18731;42.830;24.390;2022-10-16T18:26:53;14.73;;;8.75;;
32242;SDS011;18731;42.830;24.390;2022-10-16T18:29:24;15.40;;;9.40;;
32242;SDS011;18731;42.830;24.390;2022-10-16T18:31:51;18.25;;;9.43;;
32242;SDS011;18731;42.830;24.390;2022-10-16T18:34:18;30.08;;;13.18;;
32242;SDS011;18731;42.830;24.390;2022-10-16T18:36:44;29.77;;;13.18;;
32242;SDS011;18731;42.830;24.390;2022-10-16T18:39:10;20.05;;;13.35;;
32242;SDS011;18731;42.830;24.390;2022-10-16T18:41:38;25.65;;;13.73;;
32242;SDS011;18731;42.830;24.390;2022-10-16T18:44:05;26.13;;;14.55;;
32242;SDS011;18731;42.830;24.390;2022-10-16T18:46:33;30.58;;;14.65;;
32242;SDS011;18731;42.830;24.390;2022-10-16T18:48:59;25.90;;;15.60;;
32242;SDS011;18731;42.830;24.390;2022-10-16T18:51:32;28.08;;;14.35;;
32242;SDS011;18731;42.830;24.390;2022-10-16T18:54:03;27.83;;;14.07;;
32242;SDS011;18731;42.830;24.390;2022-10-16T18:56:32;30.30;;;14.55;;
32242;SDS011;18731;42.830;24.390;2022-10-16T18:58:59;24.50;;;12.75;;
32242;SDS011;18731;42.830;24.390;2022-10-16T19:01:27;25.48;;;12.15;;
32242;SDS011;18731;42.830;24.390;2022-10-16T19:03:56;21.58;;;13.00;;
32242;SDS011;18731;42.830;24.390;2022-10-16T19:06:27;19.48;;;11.48;;
32242;SDS011;18731;42.830;24.390;2022-10-16T19:08:54;19.55;;;11.73;;
32242;SDS011;18731;42.830;24.390;2022-10-16T19:11:22;23.23;;;11.18;;
32242;SDS011;18731;42.830;24.390;2022-10-16T19:13:50;19.63;;;10.85;;
32242;SDS011;18731;42.830;24.390;2022-10-16T19:16:19;19.70;;;10.25;;
32242;SDS011;18731;42.830;24.390;2022-10-16T19:18:47;22.85;;;9.40;;
32242;SDS011;18731;42.830;24.390;2022-10-16T19:21:17;22.00;;;11.05;;
32242;SDS011;18731;42.830;24.390;2022-10-16T19:23:43;18.38;;;10.10;;
32242;SDS011;18731;42.830;24.390;2022-10-16T19:26:13;21.90;;;10.60;;
32242;SDS011;18731;42.830;24.390;2022-10-16T19:28:40;22.10;;;9.57;;
32242;SDS011;18731;42.830;24.390;2022-10-16T19:31:08;28.70;;;13.85;;
32242;SDS011;18731;42.830;24.390;2022-10-16T19:33:36;28.13;;;13.23;;
32242;SDS011;18731;42.830;24.390;2022-10-16T19:36:08;28.67;;;13.68;;
32242;SDS011;18731;42.830;24.390;2022-10-16T19:38:38;27.42;;;12.35;;
32242;SDS011;18731;42.830;24.390;2022-10-16T19:41:08;22.67;;;11.15;;
32242;SDS011;18731;42.830;24.390;2022-10-16T19:43:39;25.60;;;10.57;;